sensor_id;sensor_type;location;lat;lon;timestamp;temperature;humidity
9410;DHT22;4744;52.576;13.568;2023-04-03T00:00:10;1.20;1.00
9410;DHT22;4744;52.576;13.568;2023-04-03T00:02:37;1.20;1.00
9410;DHT22;4744;52.576;13.568;2023-04-03T00:05:04;1.20;1.00
9410;DHT22;4744;52.576;13.568;2023-04-03T00:07:31;1.20;1.00
9410;DHT22;4744;52.576;13.568;2023-04-03T00:09:59;1.20;1.00
9410;DHT22;4744;52.576;13.568;2023-04-03T00:12:26;1.20;1.00
9410;DHT22;4744;52.576;13.568;2023-04-03T00:14:53;1.10;1.00
9410;DHT22;4744;52.576;13.568;2023-04-03T00:17:20;1.10;1.00
9410;DHT22;4744;52.576;13.568;2023-04-03T00:19:47;1.10;1.00
9410;DHT22;4744;52.576;13.568;2023-04-03T00:22:14;1.20;1.00
9410;DHT22;4744;52.576;13.568;2023-04-03T00:24:41;1.20;1.00
9410;DHT22;4744;52.576;13.568;2023-04-03T00:27:09;1.10;1.00
9410;DHT22;4744;52.576;13.568;2023-04-03T00:29:36;1.10;1.00
9410;DHT22;4744;52.576;13.568;2023-04-03T00:32:03;1.10;1.00
9410;DHT22;4744;52.576;13.568;2023-04-03T00:34:30;1.10;1.00
9410;DHT22;4744;52.576;13.568;2023-04-03T00:36:57;1.10;1.00
9410;DHT22;4744;52.576;13.568;2023-04-03T00:39:25;1.10;1.00
9410;DHT22;4744;52.576;13.568;2023-04-03T00:41:52;1.10;1.00
9410;DHT22;4744;52.576;13.568;2023-04-03T00:44:22;1.10;1.00
9410;DHT22;4744;52.576;13.568;2023-04-03T00:46:49;1.00;1.00
9410;DHT22;4744;52.576;13.568;2023-04-03T00:49:16;1.00;1.00
9410;DHT22;4744;52.576;13.568;2023-04-03T00:51:43;1.00;1.00
9410;DHT22;4744;52.576;13.568;2023-04-03T00:54:10;1.00;1.00
9410;DHT22;4744;52.576;13.568;2023-04-03T00:56:37;0.90;1.00
9410;DHT22;4744;52.576;13.568;2023-04-03T00:59:08;0.90;1.00
9410;DHT22;4744;52.576;13.568;2023-04-03T01:01:38;0.90;1.00
9410;DHT22;4744;52.576;13.568;2023-04-03T01:04:05;0.90;1.00
9410;DHT22;4744;52.576;13.568;2023-04-03T01:06:35;0.90;1.00
9410;DHT22;4744;52.576;13.568;2023-04-03T01:09:03;0.80;1.00
9410;DHT22;4744;52.576;13.568;2023-04-03T01:11:31;0.80;1.00
9410;DHT22;4744;52.576;13.568;2023-04-03T01:13:58;0.80;1.00
9410;DHT22;4744;52.576;13.568;2023-04-03T01:16:27;0.80;1.00
9410;DHT22;4744;52.576;13.568;2023-04-03T01:18:59;0.80;1.00
9410;DHT22;4744;52.576;13.568;2023-04-03T01:21:56;0.80;1.00
9410;DHT22;4744;52.576;13.568;2023-04-03T01:24:33;0.70;1.00
9410;DHT22;4744;52.576;13.568;2023-04-03T01:27:03;0.70;1.00
9410;DHT22;4744;52.576;13.568;2023-04-03T01:29:31;0.70;1.00
9410;DHT22;4744;52.576;13.568;2023-04-03T01:32:00;0.70;1.00
9410;DHT22;4744;52.576;13.568;2023-04-03T01:34:28;0.70;1.00
9410;DHT22;4744;52.576;13.568;2023-04-03T01:36:56;0.60;1.00
9410;DHT22;4744;52.576;13.568;2023-04-03T01:39:23;0.60;1.00
9410;DHT22;4744;52.576;13.568;2023-04-03T01:41:51;0.60;1.00
9410;DHT22;4744;52.576;13.568;2023-04-03T01:44:17;0.60;1.00
9410;DHT22;4744;52.576;13.568;2023-04-03T01:46:44;0.50;1.00
9410;DHT22;4744;52.576;13.568;2023-04-03T01:49:13;0.50;1.00
9410;DHT22;4744;52.576;13.568;2023-04-03T01:51:40;0.50;1.00
9410;DHT22;4744;52.576;13.568;2023-04-03T01:54:07;0.50;1.00
9410;DHT22;4744;52.576;13.568;2023-04-03T01:56:34;0.50;1.00
9410;DHT22;4744;52.576;13.568;2023-04-03T01:59:00;0.50;1.00
9410;DHT22;4744;52.576;13.568;2023-04-03T02:01:27;0.50;1.00
9410;DHT22;4744;52.576;13.568;2023-04-03T02:03:54;0.40;1.00
9410;DHT22;4744;52.576;13.568;2023-04-03T02:06:23;0.40;1.00
9410;DHT22;4744;52.576;13.568;2023-04-03T02:08:50;0.40;1.00
9410;DHT22;4744;52.576;13.568;2023-04-03T02:11:17;0.40;1.00
9410;DHT22;4744;52.576;13.568;2023-04-03T02:13:45;0.30;1.00
9410;DHT22;4744;52.576;13.568;2023-04-03T02:16:12;0.30;1.00
9410;DHT22;4744;52.576;13.568;2023-04-03T02:18:39;0.30;1.00
9410;DHT22;4744;52.576;13.568;2023-04-03T02:21:06;0.20;1.00
9410;DHT22;4744;52.576;13.568;2023-04-03T02:23:34;0.20;1.00
9410;DHT22;4744;52.576;13.568;2023-04-03T02:26:04;0.10;1.00
9410;DHT22;4744;52.576;13.568;2023-04-03T02:28:31;0.10;1.00
9410;DHT22;4744;52.576;13.568;2023-04-03T02:30:58;0.10;1.00
9410;DHT22;4744;52.576;13.568;2023-04-03T02:33:25;0.10;1.00
9410;DHT22;4744;52.576;13.568;2023-04-03T02:35:53;0.10;1.00
9410;DHT22;4744;52.576;13.568;2023-04-03T02:38:20;0.10;1.00
9410;DHT22;4744;52.576;13.568;2023-04-03T02:40:49;0.10;1.00
9410;DHT22;4744;52.576;13.568;2023-04-03T02:43:16;0.00;1.00
9410;DHT22;4744;52.576;13.568;2023-04-03T02:45:43;0.00;1.00
9410;DHT22;4744;52.576;13.568;2023-04-03T02:48:10;-0.10;1.00
9410;DHT22;4744;52.576;13.568;2023-04-03T02:50:37;-0.10;1.00
9410;DHT22;4744;52.576;13.568;2023-04-03T02:53:04;-0.10;1.00
9410;DHT22;4744;52.576;13.568;2023-04-03T02:55:31;-0.20;1.00
9410;DHT22;4744;52.576;13.568;2023-04-03T02:57:59;-0.20;1.00
9410;DHT22;4744;52.576;13.568;2023-04-03T03:00:26;-0.30;1.00
9410;DHT22;4744;52.576;13.568;2023-04-03T03:02:53;-0.30;1.00
9410;DHT22;4744;52.576;13.568;2023-04-03T03:05:20;-0.30;1.00
9410;DHT22;4744;52.576;13.568;2023-04-03T03:07:47;-0.30;1.00
9410;DHT22;4744;52.576;13.568;2023-04-03T03:10:14;-0.40;1.00
9410;DHT22;4744;52.576;13.568;2023-04-03T03:12:41;-0.40;1.00
9410;DHT22;4744;52.576;13.568;2023-04-03T03:15:10;-0.40;1.00
9410;DHT22;4744;52.576;13.568;2023-04-03T03:17:37;-0.40;1.00
9410;DHT22;4744;52.576;13.568;2023-04-03T03:20:05;-0.50;1.00
9410;DHT22;4744;52.576;13.568;2023-04-03T03:22:33;-0.50;1.00
9410;DHT22;4744;52.576;13.568;2023-04-03T03:25:00;-0.50;1.00
9410;DHT22;4744;52.576;13.568;2023-04-03T03:27:28;-0.50;1.00
9410;DHT22;4744;52.576;13.568;2023-04-03T03:29:55;-0.50;1.00
9410;DHT22;4744;52.576;13.568;2023-04-03T03:32:23;-0.60;1.00
9410;DHT22;4744;52.576;13.568;2023-04-03T03:34:50;-0.60;1.00
9410;DHT22;4744;52.576;13.568;2023-04-03T03:37:17;-0.60;1.00
9410;DHT22;4744;52.576;13.568;2023-04-03T03:39:44;-0.60;1.00
9410;DHT22;4744;52.576;13.568;2023-04-03T03:42:10;-0.60;1.00
9410;DHT22;4744;52.576;13.568;2023-04-03T03:44:37;-0.60;1.00
9410;DHT22;4744;52.576;13.568;2023-04-03T03:47:04;-0.60;1.00
9410;DHT22;4744;52.576;13.568;2023-04-03T03:49:33;-0.70;1.00
9410;DHT22;4744;52.576;13.568;2023-04-03T03:52:00;-0.70;1.00
9410;DHT22;4744;52.576;13.568;2023-04-03T03:54:27;-0.70;1.00
9410;DHT22;4744;52.576;13.568;2023-04-03T03:56:54;-0.80;1.00
9410;DHT22;4744;52.576;13.568;2023-04-03T03:59:21;-0.80;1.00
9410;DHT22;4744;52.576;13.568;2023-04-03T04:01:48;-0.80;1.00
9410;DHT22;4744;52.576;13.568;2023-04-03T04:04:15;-0.80;1.00
9410;DHT22;4744;52.576;13.568;2023-04-03T04:06:43;-0.80;1.00
9410;DHT22;4744;52.576;13.568;2023-04-03T04:09:10;-0.80;1.00
9410;DHT22;4744;52.576;13.568;2023-04-03T04:11:37;-0.80;1.00
9410;DHT22;4744;52.576;13.568;2023-04-03T04:14:05;-0.80;1.00
9410;DHT22;4744;52.576;13.568;2023-04-03T04:16:32;-0.80;1.00
9410;DHT22;4744;52.576;13.568;2023-04-03T04:18:59;-0.80;1.00
9410;DHT22;4744;52.576;13.568;2023-04-03T04:21:26;-0.80;1.00
9410;DHT22;4744;52.576;13.568;2023-04-03T04:23:54;-0.80;1.00
9410;DHT22;4744;52.576;13.568;2023-04-03T04:26:21;-0.70;1.00
9410;DHT22;4744;52.576;13.568;2023-04-03T04:28:48;-0.70;1.00
9410;DHT22;4744;52.576;13.568;2023-04-03T04:31:14;-0.70;1.00
9410;DHT22;4744;52.576;13.568;2023-04-03T04:33:41;-0.70;1.00
9410;DHT22;4744;52.576;13.568;2023-04-03T04:36:08;-0.70;1.00
9410;DHT22;4744;52.576;13.568;2023-04-03T04:38:35;-0.70;1.00
9410;DHT22;4744;52.576;13.568;2023-04-03T04:41:03;-0.70;1.00
9410;DHT22;4744;52.576;13.568;2023-04-03T04:43:30;-0.70;1.00
9410;DHT22;4744;52.576;13.568;2023-04-03T04:46:01;-0.70;1.00
9410;DHT22;4744;52.576;13.568;2023-04-03T04:48:28;-0.70;1.00
9410;DHT22;4744;52.576;13.568;2023-04-03T04:50:55;-0.60;1.00
9410;DHT22;4744;52.576;13.568;2023-04-03T04:53:22;-0.60;1.00
9410;DHT22;4744;52.576;13.568;2023-04-03T04:55:49;-0.60;1.00
9410;DHT22;4744;52.576;13.568;2023-04-03T04:58:18;-0.60;1.00
9410;DHT22;4744;52.576;13.568;2023-04-03T05:00:45;-0.60;1.00
9410;DHT22;4744;52.576;13.568;2023-04-03T05:03:12;-0.60;1.00
9410;DHT22;4744;52.576;13.568;2023-04-03T05:05:39;-0.60;1.00
9410;DHT22;4744;52.576;13.568;2023-04-03T05:08:06;-0.60;1.00
9410;DHT22;4744;52.576;13.568;2023-04-03T05:10:34;-0.60;1.00
9410;DHT22;4744;52.576;13.568;2023-04-03T05:13:01;-0.50;1.00
9410;DHT22;4744;52.576;13.568;2023-04-03T05:15:29;-0.50;1.00
9410;DHT22;4744;52.576;13.568;2023-04-03T05:17:56;-0.50;1.00
9410;DHT22;4744;52.576;13.568;2023-04-03T05:20:23;-0.50;1.00
9410;DHT22;4744;52.576;13.568;2023-04-03T05:22:50;-0.50;1.00
9410;DHT22;4744;52.576;13.568;2023-04-03T05:25:17;-0.40;1.00
9410;DHT22;4744;52.576;13.568;2023-04-03T05:27:44;-0.40;1.00
9410;DHT22;4744;52.576;13.568;2023-04-03T05:30:11;-0.30;1.00
9410;DHT22;4744;52.576;13.568;2023-04-03T05:32:40;-0.30;1.00
9410;DHT22;4744;52.576;13.568;2023-04-03T05:35:08;-0.30;1.00
9410;DHT22;4744;52.576;13.568;2023-04-03T05:37:36;-0.20;1.00
9410;DHT22;4744;52.576;13.568;2023-04-03T05:40:03;-0.20;1.00
9410;DHT22;4744;52.576;13.568;2023-04-03T05:42:30;-0.10;1.00
9410;DHT22;4744;52.576;13.568;2023-04-03T05:44:57;0.00;1.00
9410;DHT22;4744;52.576;13.568;2023-04-03T05:47:24;0.10;1.00
9410;DHT22;4744;52.576;13.568;2023-04-03T05:49:52;0.10;1.00
9410;DHT22;4744;52.576;13.568;2023-04-03T05:52:21;0.20;1.00
9410;DHT22;4744;52.576;13.568;2023-04-03T05:54:49;0.30;1.00
9410;DHT22;4744;52.576;13.568;2023-04-03T05:57:16;0.50;1.00
9410;DHT22;4744;52.576;13.568;2023-04-03T05:59:44;0.60;1.00
9410;DHT22;4744;52.576;13.568;2023-04-03T06:02:12;0.60;1.00
9410;DHT22;4744;52.576;13.568;2023-04-03T06:04:39;0.70;1.00
9410;DHT22;4744;52.576;13.568;2023-04-03T06:07:11;0.90;1.00
9410;DHT22;4744;52.576;13.568;2023-04-03T06:09:38;1.00;1.00
9410;DHT22;4744;52.576;13.568;2023-04-03T06:12:06;1.10;1.00
9410;DHT22;4744;52.576;13.568;2023-04-03T06:14:33;1.20;1.00
9410;DHT22;4744;52.576;13.568;2023-04-03T06:17:00;1.30;1.00
9410;DHT22;4744;52.576;13.568;2023-04-03T06:19:27;1.40;1.00
9410;DHT22;4744;52.576;13.568;2023-04-03T06:21:54;1.50;1.00
9410;DHT22;4744;52.576;13.568;2023-04-03T06:24:23;1.60;1.00
9410;DHT22;4744;52.576;13.568;2023-04-03T06:26:51;1.70;1.00
9410;DHT22;4744;52.576;13.568;2023-04-03T06:29:19;1.80;1.00
9410;DHT22;4744;52.576;13.568;2023-04-03T06:31:46;1.90;1.00
9410;DHT22;4744;52.576;13.568;2023-04-03T06:34:13;2.00;1.00
9410;DHT22;4744;52.576;13.568;2023-04-03T06:36:41;2.00;1.00
9410;DHT22;4744;52.576;13.568;2023-04-03T06:39:09;2.10;1.00
9410;DHT22;4744;52.576;13.568;2023-04-03T06:41:40;2.20;1.00
9410;DHT22;4744;52.576;13.568;2023-04-03T06:44:07;2.30;1.00
9410;DHT22;4744;52.576;13.568;2023-04-03T06:46:37;2.40;1.00
9410;DHT22;4744;52.576;13.568;2023-04-03T06:49:05;2.40;1.00
9410;DHT22;4744;52.576;13.568;2023-04-03T06:51:33;2.50;1.00
9410;DHT22;4744;52.576;13.568;2023-04-03T06:54:00;2.50;1.00
9410;DHT22;4744;52.576;13.568;2023-04-03T06:56:30;2.70;1.00
9410;DHT22;4744;52.576;13.568;2023-04-03T06:58:58;2.70;1.00
9410;DHT22;4744;52.576;13.568;2023-04-03T07:01:27;2.80;1.00
9410;DHT22;4744;52.576;13.568;2023-04-03T07:03:54;2.80;1.00
9410;DHT22;4744;52.576;13.568;2023-04-03T07:06:22;3.00;1.00
9410;DHT22;4744;52.576;13.568;2023-04-03T07:08:52;3.00;1.00
9410;DHT22;4744;52.576;13.568;2023-04-03T07:11:19;3.00;1.00
9410;DHT22;4744;52.576;13.568;2023-04-03T07:13:46;3.20;1.00
9410;DHT22;4744;52.576;13.568;2023-04-03T07:16:14;3.30;1.00
9410;DHT22;4744;52.576;13.568;2023-04-03T07:18:41;3.40;1.00
9410;DHT22;4744;52.576;13.568;2023-04-03T07:21:08;3.50;1.00
9410;DHT22;4744;52.576;13.568;2023-04-03T07:23:35;3.60;1.00
9410;DHT22;4744;52.576;13.568;2023-04-03T07:26:02;3.60;1.00
9410;DHT22;4744;52.576;13.568;2023-04-03T07:28:29;3.70;1.00
9410;DHT22;4744;52.576;13.568;2023-04-03T07:31:00;3.80;1.00
9410;DHT22;4744;52.576;13.568;2023-04-03T07:33:29;3.80;1.00
9410;DHT22;4744;52.576;13.568;2023-04-03T07:35:56;3.90;1.00
9410;DHT22;4744;52.576;13.568;2023-04-03T07:38:24;3.90;1.00
9410;DHT22;4744;52.576;13.568;2023-04-03T07:40:51;4.00;1.00
9410;DHT22;4744;52.576;13.568;2023-04-03T07:43:21;4.10;1.00
9410;DHT22;4744;52.576;13.568;2023-04-03T07:45:48;4.10;1.00
9410;DHT22;4744;52.576;13.568;2023-04-03T07:48:17;4.20;1.00
9410;DHT22;4744;52.576;13.568;2023-04-03T07:50:45;4.10;1.00
9410;DHT22;4744;52.576;13.568;2023-04-03T07:53:12;4.00;1.00
9410;DHT22;4744;52.576;13.568;2023-04-03T07:55:40;3.90;1.00
9410;DHT22;4744;52.576;13.568;2023-04-03T07:58:09;4.20;1.00
9410;DHT22;4744;52.576;13.568;2023-04-03T08:00:37;4.30;1.00
9410;DHT22;4744;52.576;13.568;2023-04-03T08:03:05;4.30;1.00
9410;DHT22;4744;52.576;13.568;2023-04-03T08:05:37;4.70;1.00
9410;DHT22;4744;52.576;13.568;2023-04-03T08:08:06;4.70;1.00
9410;DHT22;4744;52.576;13.568;2023-04-03T08:10:34;4.70;1.00
9410;DHT22;4744;52.576;13.568;2023-04-03T08:13:02;4.90;1.00
9410;DHT22;4744;52.576;13.568;2023-04-03T08:15:30;4.70;1.00
9410;DHT22;4744;52.576;13.568;2023-04-03T08:17:57;4.70;1.00
9410;DHT22;4744;52.576;13.568;2023-04-03T08:20:24;4.70;1.00
9410;DHT22;4744;52.576;13.568;2023-04-03T08:22:51;4.60;1.00
9410;DHT22;4744;52.576;13.568;2023-04-03T08:25:20;4.50;1.00
9410;DHT22;4744;52.576;13.568;2023-04-03T08:27:47;4.40;1.00
9410;DHT22;4744;52.576;13.568;2023-04-03T08:30:14;4.40;1.00
9410;DHT22;4744;52.576;13.568;2023-04-03T08:32:41;4.30;1.00
9410;DHT22;4744;52.576;13.568;2023-04-03T08:35:10;4.30;1.00
9410;DHT22;4744;52.576;13.568;2023-04-03T08:37:37;4.30;1.00
9410;DHT22;4744;52.576;13.568;2023-04-03T08:40:06;4.40;1.00
9410;DHT22;4744;52.576;13.568;2023-04-03T08:42:48;4.70;1.00
9410;DHT22;4744;52.576;13.568;2023-04-03T08:45:21;4.70;1.00
9410;DHT22;4744;52.576;13.568;2023-04-03T08:47:55;4.50;1.00
9410;DHT22;4744;52.576;13.568;2023-04-03T08:50:29;4.40;1.00
9410;DHT22;4744;52.576;13.568;2023-04-03T08:52:58;4.30;1.00
9410;DHT22;4744;52.576;13.568;2023-04-03T08:55:27;4.40;1.00
9410;DHT22;4744;52.576;13.568;2023-04-03T08:58:01;5.20;1.00
9410;DHT22;4744;52.576;13.568;2023-04-03T09:00:31;6.10;1.00
9410;DHT22;4744;52.576;13.568;2023-04-03T09:03:01;6.60;1.00
9410;DHT22;4744;52.576;13.568;2023-04-03T09:05:35;6.80;1.00
9410;DHT22;4744;52.576;13.568;2023-04-03T09:08:11;6.80;1.00
9410;DHT22;4744;52.576;13.568;2023-04-03T09:10:40;6.50;1.00
9410;DHT22;4744;52.576;13.568;2023-04-03T09:13:17;6.40;1.00
9410;DHT22;4744;52.576;13.568;2023-04-03T09:15:44;6.30;1.00
9410;DHT22;4744;52.576;13.568;2023-04-03T09:18:15;5.90;1.00
9410;DHT22;4744;52.576;13.568;2023-04-03T09:20:47;5.70;1.00
9410;DHT22;4744;52.576;13.568;2023-04-03T09:23:22;5.50;1.00
9410;DHT22;4744;52.576;13.568;2023-04-03T09:25:54;5.40;1.00
9410;DHT22;4744;52.576;13.568;2023-04-03T09:28:25;5.30;1.00
9410;DHT22;4744;52.576;13.568;2023-04-03T09:30:53;5.40;1.00
9410;DHT22;4744;52.576;13.568;2023-04-03T09:33:21;5.50;1.00
9410;DHT22;4744;52.576;13.568;2023-04-03T09:35:48;5.60;1.00
9410;DHT22;4744;52.576;13.568;2023-04-03T09:38:18;5.60;1.00
9410;DHT22;4744;52.576;13.568;2023-04-03T09:40:47;5.60;1.00
9410;DHT22;4744;52.576;13.568;2023-04-03T09:43:27;5.50;1.00
9410;DHT22;4744;52.576;13.568;2023-04-03T09:45:55;5.40;1.00
9410;DHT22;4744;52.576;13.568;2023-04-03T09:48:24;5.50;1.00
9410;DHT22;4744;52.576;13.568;2023-04-03T09:50:57;5.60;1.00
9410;DHT22;4744;52.576;13.568;2023-04-03T09:53:37;5.60;1.00
9410;DHT22;4744;52.576;13.568;2023-04-03T09:56:19;5.50;1.00
9410;DHT22;4744;52.576;13.568;2023-04-03T09:58:50;5.60;1.00
9410;DHT22;4744;52.576;13.568;2023-04-03T10:01:26;5.70;1.00
9410;DHT22;4744;52.576;13.568;2023-04-03T10:04:08;5.60;1.00
9410;DHT22;4744;52.576;13.568;2023-04-03T10:06:39;5.50;1.00
9410;DHT22;4744;52.576;13.568;2023-04-03T10:09:18;5.40;1.00
9410;DHT22;4744;52.576;13.568;2023-04-03T10:12:00;5.40;1.00
9410;DHT22;4744;52.576;13.568;2023-04-03T10:14:32;5.40;1.00
9410;DHT22;4744;52.576;13.568;2023-04-03T10:17:05;5.60;1.00
9410;DHT22;4744;52.576;13.568;2023-04-03T10:19:40;5.80;1.00
9410;DHT22;4744;52.576;13.568;2023-04-03T10:22:15;5.80;1.00
9410;DHT22;4744;52.576;13.568;2023-04-03T10:24:50;5.60;1.00
9410;DHT22;4744;52.576;13.568;2023-04-03T10:27:24;5.60;1.00
9410;DHT22;4744;52.576;13.568;2023-04-03T10:30:04;5.40;1.00
9410;DHT22;4744;52.576;13.568;2023-04-03T10:32:52;5.30;1.00
9410;DHT22;4744;52.576;13.568;2023-04-03T10:35:32;5.30;1.00
9410;DHT22;4744;52.576;13.568;2023-04-03T10:38:06;5.50;1.00
9410;DHT22;4744;52.576;13.568;2023-04-03T10:40:43;5.60;1.00
9410;DHT22;4744;52.576;13.568;2023-04-03T10:43:17;5.70;1.00
9410;DHT22;4744;52.576;13.568;2023-04-03T10:45:57;5.80;1.00
9410;DHT22;4744;52.576;13.568;2023-04-03T10:48:39;5.80;1.00
9410;DHT22;4744;52.576;13.568;2023-04-03T10:51:14;5.80;1.00
9410;DHT22;4744;52.576;13.568;2023-04-03T10:53:47;5.60;1.00
9410;DHT22;4744;52.576;13.568;2023-04-03T10:56:21;5.60;1.00
9410;DHT22;4744;52.576;13.568;2023-04-03T10:58:56;5.50;1.00
9410;DHT22;4744;52.576;13.568;2023-04-03T11:01:30;5.50;1.00
9410;DHT22;4744;52.576;13.568;2023-04-03T11:04:00;5.60;1.00
9410;DHT22;4744;52.576;13.568;2023-04-03T11:06:40;5.70;1.00
9410;DHT22;4744;52.576;13.568;2023-04-03T11:09:19;5.80;1.00
9410;DHT22;4744;52.576;13.568;2023-04-03T11:11:48;5.90;1.00
9410;DHT22;4744;52.576;13.568;2023-04-03T11:14:24;5.90;1.00
9410;DHT22;4744;52.576;13.568;2023-04-03T11:17:02;5.90;1.00
9410;DHT22;4744;52.576;13.568;2023-04-03T11:19:34;5.90;1.00
9410;DHT22;4744;52.576;13.568;2023-04-03T11:22:09;6.00;1.00
9410;DHT22;4744;52.576;13.568;2023-04-03T11:24:39;6.00;1.00
9410;DHT22;4744;52.576;13.568;2023-04-03T11:27:15;6.10;1.00
9410;DHT22;4744;52.576;13.568;2023-04-03T11:29:44;6.00;1.00
9410;DHT22;4744;52.576;13.568;2023-04-03T11:32:42;6.00;1.00
9410;DHT22;4744;52.576;13.568;2023-04-03T11:35:17;6.10;1.00
9410;DHT22;4744;52.576;13.568;2023-04-03T11:37:46;6.10;1.00
9410;DHT22;4744;52.576;13.568;2023-04-03T11:40:22;6.30;1.00
9410;DHT22;4744;52.576;13.568;2023-04-03T11:42:55;6.40;1.00
9410;DHT22;4744;52.576;13.568;2023-04-03T11:45:35;6.40;1.00
9410;DHT22;4744;52.576;13.568;2023-04-03T11:48:06;6.40;1.00
9410;DHT22;4744;52.576;13.568;2023-04-03T11:50:44;6.40;1.00
9410;DHT22;4744;52.576;13.568;2023-04-03T11:53:33;6.30;1.00
9410;DHT22;4744;52.576;13.568;2023-04-03T11:56:27;6.30;1.00
9410;DHT22;4744;52.576;13.568;2023-04-03T11:59:21;6.20;1.00
9410;DHT22;4744;52.576;13.568;2023-04-03T12:01:49;6.20;1.00
9410;DHT22;4744;52.576;13.568;2023-04-03T12:04:19;6.10;1.00
9410;DHT22;4744;52.576;13.568;2023-04-03T12:07:11;6.10;1.00
9410;DHT22;4744;52.576;13.568;2023-04-03T12:10:17;6.30;1.00
9410;DHT22;4744;52.576;13.568;2023-04-03T12:12:56;6.40;1.00
9410;DHT22;4744;52.576;13.568;2023-04-03T12:15:52;6.40;1.00
9410;DHT22;4744;52.576;13.568;2023-04-03T12:18:42;6.50;1.00
9410;DHT22;4744;52.576;13.568;2023-04-03T12:21:11;6.50;1.00
9410;DHT22;4744;52.576;13.568;2023-04-03T12:24:00;6.50;1.00
9410;DHT22;4744;52.576;13.568;2023-04-03T12:26:31;6.50;1.00
9410;DHT22;4744;52.576;13.568;2023-04-03T12:29:02;6.40;1.00
9410;DHT22;4744;52.576;13.568;2023-04-03T12:31:42;6.30;1.00
9410;DHT22;4744;52.576;13.568;2023-04-03T12:34:23;6.20;1.00
9410;DHT22;4744;52.576;13.568;2023-04-03T12:37:00;6.10;1.00
9410;DHT22;4744;52.576;13.568;2023-04-03T12:39:43;6.00;1.00
9410;DHT22;4744;52.576;13.568;2023-04-03T12:42:30;6.00;1.00
9410;DHT22;4744;52.576;13.568;2023-04-03T12:45:03;6.20;1.00
9410;DHT22;4744;52.576;13.568;2023-04-03T12:47:36;6.30;1.00
9410;DHT22;4744;52.576;13.568;2023-04-03T12:50:17;6.30;1.00
9410;DHT22;4744;52.576;13.568;2023-04-03T12:52:55;6.30;1.00
9410;DHT22;4744;52.576;13.568;2023-04-03T12:55:24;6.40;1.00
9410;DHT22;4744;52.576;13.568;2023-04-03T12:57:52;6.50;1.00
9410;DHT22;4744;52.576;13.568;2023-04-03T13:00:25;6.60;1.00
9410;DHT22;4744;52.576;13.568;2023-04-03T13:02:53;6.70;1.00
9410;DHT22;4744;52.576;13.568;2023-04-03T13:05:21;6.80;1.00
9410;DHT22;4744;52.576;13.568;2023-04-03T13:07:53;6.90;1.00
9410;DHT22;4744;52.576;13.568;2023-04-03T13:10:22;6.70;1.00
9410;DHT22;4744;52.576;13.568;2023-04-03T13:12:51;6.60;1.00
9410;DHT22;4744;52.576;13.568;2023-04-03T13:15:20;6.30;1.00
9410;DHT22;4744;52.576;13.568;2023-04-03T13:17:48;6.00;1.00
9410;DHT22;4744;52.576;13.568;2023-04-03T13:20:23;5.90;1.00
9410;DHT22;4744;52.576;13.568;2023-04-03T13:22:57;5.80;1.00
9410;DHT22;4744;52.576;13.568;2023-04-03T13:25:28;5.70;1.00
9410;DHT22;4744;52.576;13.568;2023-04-03T13:27:58;5.60;1.00
9410;DHT22;4744;52.576;13.568;2023-04-03T13:30:28;5.60;1.00
9410;DHT22;4744;52.576;13.568;2023-04-03T13:32:57;5.70;1.00
9410;DHT22;4744;52.576;13.568;2023-04-03T13:35:34;5.80;1.00
9410;DHT22;4744;52.576;13.568;2023-04-03T13:38:19;5.80;1.00
9410;DHT22;4744;52.576;13.568;2023-04-03T13:40:51;5.90;1.00
9410;DHT22;4744;52.576;13.568;2023-04-03T13:43:21;5.90;1.00
9410;DHT22;4744;52.576;13.568;2023-04-03T13:46:05;5.90;1.00
9410;DHT22;4744;52.576;13.568;2023-04-03T13:48:38;5.90;1.00
9410;DHT22;4744;52.576;13.568;2023-04-03T13:51:16;5.90;1.00
9410;DHT22;4744;52.576;13.568;2023-04-03T13:53:47;5.80;1.00
9410;DHT22;4744;52.576;13.568;2023-04-03T13:56:23;5.90;1.00
9410;DHT22;4744;52.576;13.568;2023-04-03T13:58:58;6.00;1.00
9410;DHT22;4744;52.576;13.568;2023-04-03T14:01:32;6.10;1.00
9410;DHT22;4744;52.576;13.568;2023-04-03T14:04:01;6.20;1.00
9410;DHT22;4744;52.576;13.568;2023-04-03T14:06:28;6.10;1.00
9410;DHT22;4744;52.576;13.568;2023-04-03T14:08:57;6.10;1.00
9410;DHT22;4744;52.576;13.568;2023-04-03T14:11:28;5.90;1.00
9410;DHT22;4744;52.576;13.568;2023-04-03T14:13:56;5.90;1.00
9410;DHT22;4744;52.576;13.568;2023-04-03T14:16:28;6.10;1.00
9410;DHT22;4744;52.576;13.568;2023-04-03T14:18:56;6.00;1.00
9410;DHT22;4744;52.576;13.568;2023-04-03T14:21:24;5.90;1.00
9410;DHT22;4744;52.576;13.568;2023-04-03T14:23:51;5.80;1.00
9410;DHT22;4744;52.576;13.568;2023-04-03T14:26:21;5.70;1.00
9410;DHT22;4744;52.576;13.568;2023-04-03T14:28:50;5.60;1.00
9410;DHT22;4744;52.576;13.568;2023-04-03T14:31:19;5.40;1.00
9410;DHT22;4744;52.576;13.568;2023-04-03T14:33:47;5.40;1.00
9410;DHT22;4744;52.576;13.568;2023-04-03T14:36:15;5.40;1.00
9410;DHT22;4744;52.576;13.568;2023-04-03T14:38:44;5.30;1.00
9410;DHT22;4744;52.576;13.568;2023-04-03T14:41:12;5.30;1.00
9410;DHT22;4744;52.576;13.568;2023-04-03T14:43:41;5.20;1.00
9410;DHT22;4744;52.576;13.568;2023-04-03T14:46:13;5.10;1.00
9410;DHT22;4744;52.576;13.568;2023-04-03T14:48:41;5.10;1.00
9410;DHT22;4744;52.576;13.568;2023-04-03T14:51:09;5.00;1.00
9410;DHT22;4744;52.576;13.568;2023-04-03T14:53:37;4.90;1.00
9410;DHT22;4744;52.576;13.568;2023-04-03T14:56:09;4.90;1.00
9410;DHT22;4744;52.576;13.568;2023-04-03T14:58:37;4.90;1.00
9410;DHT22;4744;52.576;13.568;2023-04-03T15:01:05;4.80;1.00
9410;DHT22;4744;52.576;13.568;2023-04-03T15:03:32;4.80;1.00
9410;DHT22;4744;52.576;13.568;2023-04-03T15:05:59;4.80;1.00
9410;DHT22;4744;52.576;13.568;2023-04-03T15:08:27;4.80;1.00
9410;DHT22;4744;52.576;13.568;2023-04-03T15:10:56;4.80;1.00
9410;DHT22;4744;52.576;13.568;2023-04-03T15:13:24;4.90;1.00
9410;DHT22;4744;52.576;13.568;2023-04-03T15:15:52;4.90;1.00
9410;DHT22;4744;52.576;13.568;2023-04-03T15:18:23;4.90;1.00
9410;DHT22;4744;52.576;13.568;2023-04-03T15:20:51;4.80;1.00
9410;DHT22;4744;52.576;13.568;2023-04-03T15:23:19;4.80;1.00
9410;DHT22;4744;52.576;13.568;2023-04-03T15:25:47;4.80;1.00
9410;DHT22;4744;52.576;13.568;2023-04-03T15:28:18;4.70;1.00
9410;DHT22;4744;52.576;13.568;2023-04-03T15:30:47;4.70;1.00
9410;DHT22;4744;52.576;13.568;2023-04-03T15:33:14;4.70;1.00
9410;DHT22;4744;52.576;13.568;2023-04-03T15:35:43;4.80;1.00
9410;DHT22;4744;52.576;13.568;2023-04-03T15:38:10;4.70;1.00
9410;DHT22;4744;52.576;13.568;2023-04-03T15:40:37;4.60;1.00
9410;DHT22;4744;52.576;13.568;2023-04-03T15:43:05;4.60;1.00
9410;DHT22;4744;52.576;13.568;2023-04-03T15:45:33;4.50;1.00
9410;DHT22;4744;52.576;13.568;2023-04-03T15:48:02;4.60;1.00
9410;DHT22;4744;52.576;13.568;2023-04-03T15:50:29;4.70;1.00
9410;DHT22;4744;52.576;13.568;2023-04-03T15:52:57;4.80;1.00
9410;DHT22;4744;52.576;13.568;2023-04-03T15:55:25;5.00;1.00
9410;DHT22;4744;52.576;13.568;2023-04-03T15:57:53;5.20;1.00
9410;DHT22;4744;52.576;13.568;2023-04-03T16:00:21;5.30;1.00
9410;DHT22;4744;52.576;13.568;2023-04-03T16:02:51;5.30;1.00
9410;DHT22;4744;52.576;13.568;2023-04-03T16:05:19;5.40;1.00
9410;DHT22;4744;52.576;13.568;2023-04-03T16:07:46;5.40;1.00
9410;DHT22;4744;52.576;13.568;2023-04-03T16:10:17;5.30;1.00
9410;DHT22;4744;52.576;13.568;2023-04-03T16:12:44;5.20;1.00
9410;DHT22;4744;52.576;13.568;2023-04-03T16:15:12;5.10;1.00
9410;DHT22;4744;52.576;13.568;2023-04-03T16:17:39;5.00;1.00
9410;DHT22;4744;52.576;13.568;2023-04-03T16:20:09;5.00;1.00
9410;DHT22;4744;52.576;13.568;2023-04-03T16:22:37;5.00;1.00
9410;DHT22;4744;52.576;13.568;2023-04-03T16:25:05;4.90;1.00
9410;DHT22;4744;52.576;13.568;2023-04-03T16:27:34;4.90;1.00
9410;DHT22;4744;52.576;13.568;2023-04-03T16:30:01;4.80;1.00
9410;DHT22;4744;52.576;13.568;2023-04-03T16:32:30;4.70;1.00